TAF for YSHR provided by aerobaticsweb.org
Current time: Sunday, 17 Oct, 2021, 03:40 UTC
(This may take a minute, please be patient)


No TAF for YSHR, get TAF for YBHM, 12 nm southeast of YSHR
The most recent TAF forecast from YBHM, 12 nm southeast of YSHR in our system was generated at
2021/10/16 18:00
The forecast is:
YSHR#YBHM 2021/10/16 18:00
TAF YBHM 161636Z 1618/1706 35008KT 9999 SCT025
FM170000 02014KT CAVOK



access provided by Dr. Guenther Eichhorn at aerobaticsweb.org